sensor_id;sensor_type;location;lat;lon;timestamp;pressure;altitude;pressure_sealevel;temperature;humidity
69916;BME280;57203;42.672;23.334;2023-01-27T00:06:27;935.9;;;-0.3;87.7
69916;BME280;57203;42.672;23.334;2023-01-27T00:07:28;935.9;;;-0.2;87.8
69916;BME280;57203;42.672;23.334;2023-01-27T00:09:28;935.9;;;-0.3;87.7
69916;BME280;57203;42.672;23.334;2023-01-27T00:13:27;935.8;;;-0.4;87.7
69916;BME280;57203;42.672;23.334;2023-01-27T00:17:27;935.8;;;-0.3;87.9
69916;BME280;57203;42.672;23.334;2023-01-27T00:19:28;935.8;;;-0.2;87.9
69916;BME280;57203;42.672;23.334;2023-01-27T00:20:28;935.8;;;-0.3;87.9
69916;BME280;57203;42.672;23.334;2023-01-27T00:23:28;935.7;;;-0.4;87.7
69916;BME280;57203;42.672;23.334;2023-01-27T00:24:27;935.6;;;-0.5;87.8
69916;BME280;57203;42.672;23.334;2023-01-27T00:34:28;935.5;;;-0.4;88.4
69916;BME280;57203;42.672;23.334;2023-01-27T00:37:28;935.5;;;-0.5;88.3
69916;BME280;57203;42.672;23.334;2023-01-27T00:38:28;935.6;;;-0.4;88.3
69916;BME280;57203;42.672;23.334;2023-01-27T00:42:28;935.6;;;-0.3;88.3
69916;BME280;57203;42.672;23.334;2023-01-27T00:51:28;935.6;;;-0.4;88.1
69916;BME280;57203;42.672;23.334;2023-01-27T00:52:28;935.7;;;-0.3;88.1
69916;BME280;57203;42.672;23.334;2023-01-27T00:53:28;935.7;;;-0.2;88.3
69916;BME280;57203;42.672;23.334;2023-01-27T00:54:28;935.7;;;-0.0;88.3
69916;BME280;57203;42.672;23.334;2023-01-27T00:56:28;935.7;;;-0.1;88.2
69916;BME280;57203;42.672;23.334;2023-01-27T01:02:28;935.6;;;-0.2;88.0
69916;BME280;57203;42.672;23.334;2023-01-27T01:03:28;935.6;;;-0.1;87.9
69916;BME280;57203;42.672;23.334;2023-01-27T01:05:28;935.6;;;-0.2;87.8
69916;BME280;57203;42.672;23.334;2023-01-27T01:07:28;935.6;;;-0.3;87.9
69916;BME280;57203;42.672;23.334;2023-01-27T01:10:28;935.5;;;-0.2;88.1
69916;BME280;57203;42.672;23.334;2023-01-27T01:17:28;935.5;;;-0.1;88.2
69916;BME280;57203;42.672;23.334;2023-01-27T01:18:28;935.6;;;-0.2;88.2
69916;BME280;57203;42.672;23.334;2023-01-27T01:20:28;935.6;;;-0.3;88.1
69916;BME280;57203;42.672;23.334;2023-01-27T01:21:28;935.6;;;-0.2;88.2
69916;BME280;57203;42.672;23.334;2023-01-27T01:22:28;935.6;;;-0.1;88.3
69916;BME280;57203;42.672;23.334;2023-01-27T01:27:28;935.6;;;-0.2;88.2
69916;BME280;57203;42.672;23.334;2023-01-27T01:28:28;935.6;;;-0.3;88.2
69916;BME280;57203;42.672;23.334;2023-01-27T01:38:28;935.6;;;-0.4;88.4
69916;BME280;57203;42.672;23.334;2023-01-27T01:40:28;935.6;;;-0.3;88.5
69916;BME280;57203;42.672;23.334;2023-01-27T01:41:28;935.7;;;-0.1;88.6
69916;BME280;57203;42.672;23.334;2023-01-27T01:44:28;935.7;;;0.0;88.4
69916;BME280;57203;42.672;23.334;2023-01-27T01:46:28;935.7;;;0.1;88.4
69916;BME280;57203;42.672;23.334;2023-01-27T01:49:28;935.7;;;0.2;88.2
69916;BME280;57203;42.672;23.334;2023-01-27T01:51:29;935.7;;;0.1;88.2
69916;BME280;57203;42.672;23.334;2023-01-27T01:54:29;935.6;;;0.0;87.9
69916;BME280;57203;42.672;23.334;2023-01-27T01:55:28;935.6;;;-0.1;87.8
69916;BME280;57203;42.672;23.334;2023-01-27T01:59:29;935.5;;;0.0;87.9
69916;BME280;57203;42.672;23.334;2023-01-27T02:00:28;935.5;;;0.1;87.9
69916;BME280;57203;42.672;23.334;2023-01-27T02:01:28;935.5;;;0.2;87.7
69916;BME280;57203;42.672;23.334;2023-01-27T02:02:28;935.5;;;0.1;87.6
69916;BME280;57203;42.672;23.334;2023-01-27T02:03:28;935.5;;;0.2;87.4
69916;BME280;57203;42.672;23.334;2023-01-27T02:05:28;935.4;;;0.1;87.4
69916;BME280;57203;42.672;23.334;2023-01-27T02:15:28;935.1;;;0.2;87.3
69916;BME280;57203;42.672;23.334;2023-01-27T02:18:28;935.1;;;-0.1;87.2
69916;BME280;57203;42.672;23.334;2023-01-27T02:19:31;935.1;;;-0.3;87.1
69916;BME280;57203;42.672;23.334;2023-01-27T02:20:30;935.0;;;-0.4;87.4
69916;BME280;57203;42.672;23.334;2023-01-27T02:24:29;934.9;;;-0.3;88.1
69916;BME280;57203;42.672;23.334;2023-01-27T02:27:28;934.9;;;-0.4;88.0
69916;BME280;57203;42.672;23.334;2023-01-27T02:28:28;935.0;;;-0.5;87.9
69916;BME280;57203;42.672;23.334;2023-01-27T02:29:28;935.0;;;-0.6;88.0
69916;BME280;57203;42.672;23.334;2023-01-27T02:30:28;935.0;;;-0.5;88.0
69916;BME280;57203;42.672;23.334;2023-01-27T02:34:28;935.0;;;-0.6;88.1
69916;BME280;57203;42.672;23.334;2023-01-27T02:36:28;935.0;;;-0.5;88.3
69916;BME280;57203;42.672;23.334;2023-01-27T02:39:28;935.0;;;-0.4;88.2
69916;BME280;57203;42.672;23.334;2023-01-27T02:41:29;934.9;;;-0.5;88.2
69916;BME280;57203;42.672;23.334;2023-01-27T02:43:28;934.9;;;-0.6;88.3
69916;BME280;57203;42.672;23.334;2023-01-27T02:44:28;934.9;;;-0.5;88.4
69916;BME280;57203;42.672;23.334;2023-01-27T02:45:28;934.9;;;-0.6;88.6
69916;BME280;57203;42.672;23.334;2023-01-27T02:46:28;934.9;;;-0.7;88.5
69916;BME280;57203;42.672;23.334;2023-01-27T02:51:28;935.0;;;-0.6;89.0
69916;BME280;57203;42.672;23.334;2023-01-27T02:53:28;935.1;;;-0.5;89.0
69916;BME280;57203;42.672;23.334;2023-01-27T02:54:28;935.1;;;-0.4;89.0
69916;BME280;57203;42.672;23.334;2023-01-27T02:57:28;935.1;;;-0.5;88.8
69916;BME280;57203;42.672;23.334;2023-01-27T02:58:28;935.1;;;-0.6;88.6
69916;BME280;57203;42.672;23.334;2023-01-27T02:59:28;935.1;;;-0.5;88.6
69916;BME280;57203;42.672;23.334;2023-01-27T03:01:28;935.1;;;-0.4;88.6
69916;BME280;57203;42.672;23.334;2023-01-27T03:02:28;935.1;;;-0.5;88.4
69916;BME280;57203;42.672;23.334;2023-01-27T03:04:28;935.1;;;-0.6;88.4
69916;BME280;57203;42.672;23.334;2023-01-27T03:06:28;935.0;;;-0.4;88.3
69916;BME280;57203;42.672;23.334;2023-01-27T03:07:28;935.0;;;-0.3;88.3
69916;BME280;57203;42.672;23.334;2023-01-27T03:09:28;934.9;;;-0.2;88.0
69916;BME280;57203;42.672;23.334;2023-01-27T03:14:28;934.9;;;-0.3;87.4
69916;BME280;57203;42.672;23.334;2023-01-27T03:15:28;934.9;;;-0.4;87.3
69916;BME280;57203;42.672;23.334;2023-01-27T03:16:28;934.9;;;-0.5;87.4
69916;BME280;57203;42.672;23.334;2023-01-27T03:18:28;934.8;;;-0.4;87.8
69916;BME280;57203;42.672;23.334;2023-01-27T03:19:28;934.8;;;-0.2;87.8
69916;BME280;57203;42.672;23.334;2023-01-27T03:20:28;934.8;;;-0.1;87.8
69916;BME280;57203;42.672;23.334;2023-01-27T03:23:28;934.7;;;-0.2;87.4
69916;BME280;57203;42.672;23.334;2023-01-27T03:24:28;934.7;;;-0.1;87.4
69916;BME280;57203;42.672;23.334;2023-01-27T03:33:28;934.6;;;-0.2;87.3
69916;BME280;57203;42.672;23.334;2023-01-27T03:34:28;934.6;;;-0.4;87.5
69916;BME280;57203;42.672;23.334;2023-01-27T03:36:28;934.6;;;-0.5;87.8
69916;BME280;57203;42.672;23.334;2023-01-27T03:37:28;934.5;;;-0.4;88.1
69916;BME280;57203;42.672;23.334;2023-01-27T03:39:28;934.5;;;-0.5;88.4
69916;BME280;57203;42.672;23.334;2023-01-27T03:40:28;934.5;;;-0.7;88.4
69916;BME280;57203;42.672;23.334;2023-01-27T03:42:28;934.4;;;-0.6;88.9
69916;BME280;57203;42.672;23.334;2023-01-27T03:43:28;934.4;;;-0.7;89.0
69916;BME280;57203;42.672;23.334;2023-01-27T03:46:28;934.3;;;-0.6;89.4
69916;BME280;57203;42.672;23.334;2023-01-27T03:51:28;934.3;;;-0.7;89.5
69916;BME280;57203;42.672;23.334;2023-01-27T03:53:28;934.3;;;-0.6;89.6
69916;BME280;57203;42.672;23.334;2023-01-27T03:54:28;934.3;;;-0.7;89.6
69916;BME280;57203;42.672;23.334;2023-01-27T03:55:28;934.3;;;-0.8;89.6
69916;BME280;57203;42.672;23.334;2023-01-27T03:57:28;934.4;;;-0.7;89.8
69916;BME280;57203;42.672;23.334;2023-01-27T03:58:28;934.4;;;-0.6;89.8
69916;BME280;57203;42.672;23.334;2023-01-27T04:00:28;934.3;;;-0.5;89.9
69916;BME280;57203;42.672;23.334;2023-01-27T04:02:28;934.3;;;-0.4;89.8
69916;BME280;57203;42.672;23.334;2023-01-27T04:07:28;934.5;;;-0.5;89.6
69916;BME280;57203;42.672;23.334;2023-01-27T04:08:28;934.6;;;-0.6;89.6
69916;BME280;57203;42.672;23.334;2023-01-27T04:10:28;934.7;;;-0.5;89.6
69916;BME280;57203;42.672;23.334;2023-01-27T04:12:28;934.7;;;-0.4;89.6
69916;BME280;57203;42.672;23.334;2023-01-27T04:13:28;934.7;;;-0.5;89.7
69916;BME280;57203;42.672;23.334;2023-01-27T04:14:28;934.8;;;-0.6;89.6
69916;BME280;57203;42.672;23.334;2023-01-27T04:15:28;934.9;;;-0.7;89.6
69916;BME280;57203;42.672;23.334;2023-01-27T04:16:28;934.9;;;-0.6;89.7
69916;BME280;57203;42.672;23.334;2023-01-27T04:19:28;935.1;;;-0.5;89.7
69916;BME280;57203;42.672;23.334;2023-01-27T04:20:28;935.1;;;-0.4;89.7
69916;BME280;57203;42.672;23.334;2023-01-27T04:21:28;935.1;;;-0.3;89.7
69916;BME280;57203;42.672;23.334;2023-01-27T04:22:28;935.1;;;-0.2;89.7
69916;BME280;57203;42.672;23.334;2023-01-27T04:23:28;935.0;;;-0.1;89.6
69916;BME280;57203;42.672;23.334;2023-01-27T04:24:28;935.0;;;-0.2;89.5
69916;BME280;57203;42.672;23.334;2023-01-27T04:25:28;935.0;;;-0.3;89.3
69916;BME280;57203;42.672;23.334;2023-01-27T04:27:28;935.0;;;-0.2;89.2
69916;BME280;57203;42.672;23.334;2023-01-27T04:28:28;935.0;;;-0.0;89.1
69916;BME280;57203;42.672;23.334;2023-01-27T04:29:29;935.0;;;0.1;89.1
69916;BME280;57203;42.672;23.334;2023-01-27T04:30:28;935.1;;;-0.1;88.9
69916;BME280;57203;42.672;23.334;2023-01-27T04:33:28;935.1;;;-0.2;88.5
69916;BME280;57203;42.672;23.334;2023-01-27T04:37:28;935.2;;;-0.3;88.5
69916;BME280;57203;42.672;23.334;2023-01-27T04:41:28;935.2;;;-0.2;88.9
69916;BME280;57203;42.672;23.334;2023-01-27T04:48:28;935.3;;;-0.3;89.0
69916;BME280;57203;42.672;23.334;2023-01-27T04:50:28;935.2;;;-0.2;89.0
69916;BME280;57203;42.672;23.334;2023-01-27T04:51:28;935.1;;;-0.1;89.1
69916;BME280;57203;42.672;23.334;2023-01-27T04:59:28;935.3;;;-0.2;88.8
69916;BME280;57203;42.672;23.334;2023-01-27T05:00:28;935.3;;;-0.1;88.7
69916;BME280;57203;42.672;23.334;2023-01-27T05:06:28;935.3;;;-0.2;88.4
69916;BME280;57203;42.672;23.334;2023-01-27T05:09:28;935.4;;;-0.3;88.3
69916;BME280;57203;42.672;23.334;2023-01-27T05:10:28;935.4;;;-0.2;88.4
69916;BME280;57203;42.672;23.334;2023-01-27T05:12:28;935.4;;;-0.1;88.5
69916;BME280;57203;42.672;23.334;2023-01-27T05:16:28;935.2;;;-0.0;88.5
69916;BME280;57203;42.672;23.334;2023-01-27T05:19:28;935.2;;;-0.1;88.5
69916;BME280;57203;42.672;23.334;2023-01-27T05:20:28;935.2;;;-0.2;88.4
69916;BME280;57203;42.672;23.334;2023-01-27T05:25:28;935.2;;;-0.1;88.6
69916;BME280;57203;42.672;23.334;2023-01-27T05:26:28;935.2;;;-0.0;88.7
69916;BME280;57203;42.672;23.334;2023-01-27T05:27:28;935.2;;;0.0;88.6
69916;BME280;57203;42.672;23.334;2023-01-27T05:28:28;935.2;;;0.1;88.5
69916;BME280;57203;42.672;23.334;2023-01-27T05:29:28;935.1;;;0.0;88.4
69916;BME280;57203;42.672;23.334;2023-01-27T05:30:28;935.1;;;-0.0;88.3
69916;BME280;57203;42.672;23.334;2023-01-27T05:31:28;935.1;;;0.1;88.3
69916;BME280;57203;42.672;23.334;2023-01-27T05:36:28;935.0;;;0.0;88.1
69916;BME280;57203;42.672;23.334;2023-01-27T05:37:28;935.0;;;-0.1;88.3
69916;BME280;57203;42.672;23.334;2023-01-27T05:38:28;935.0;;;-0.2;88.3
69916;BME280;57203;42.672;23.334;2023-01-27T05:40:28;935.0;;;-0.3;88.5
69916;BME280;57203;42.672;23.334;2023-01-27T05:41:28;935.0;;;-0.2;88.7
69916;BME280;57203;42.672;23.334;2023-01-27T05:42:28;935.0;;;-0.1;88.9
69916;BME280;57203;42.672;23.334;2023-01-27T05:48:28;934.9;;;-0.0;88.7
69916;BME280;57203;42.672;23.334;2023-01-27T05:49:28;934.9;;;-0.1;88.6
69916;BME280;57203;42.672;23.334;2023-01-27T05:50:28;934.9;;;-0.2;88.6
69916;BME280;57203;42.672;23.334;2023-01-27T05:51:29;934.9;;;-0.3;88.7
69916;BME280;57203;42.672;23.334;2023-01-27T05:52:28;935.0;;;-0.4;88.7
69916;BME280;57203;42.672;23.334;2023-01-27T05:54:28;935.0;;;-0.3;89.0
69916;BME280;57203;42.672;23.334;2023-01-27T05:58:28;935.0;;;-0.2;88.9
69916;BME280;57203;42.672;23.334;2023-01-27T06:00:28;935.0;;;-0.3;88.9
69916;BME280;57203;42.672;23.334;2023-01-27T06:02:28;935.1;;;-0.4;89.1
69916;BME280;57203;42.672;23.334;2023-01-27T06:03:28;935.1;;;-0.3;89.1
69916;BME280;57203;42.672;23.334;2023-01-27T06:05:28;935.2;;;-0.2;89.2
69916;BME280;57203;42.672;23.334;2023-01-27T06:07:28;935.2;;;-0.1;89.2
69916;BME280;57203;42.672;23.334;2023-01-27T06:08:28;935.1;;;-0.2;89.1
69916;BME280;57203;42.672;23.334;2023-01-27T06:09:28;935.1;;;-0.3;88.9
69916;BME280;57203;42.672;23.334;2023-01-27T06:14:27;935.0;;;-0.4;88.6
69916;BME280;57203;42.672;23.334;2023-01-27T06:15:27;935.1;;;-0.5;88.5
69916;BME280;57203;42.672;23.334;2023-01-27T06:16:27;935.1;;;-0.6;88.5
69916;BME280;57203;42.672;23.334;2023-01-27T06:19:28;935.1;;;-0.5;88.7
69916;BME280;57203;42.672;23.334;2023-01-27T06:22:27;935.1;;;-0.6;88.7
69916;BME280;57203;42.672;23.334;2023-01-27T06:26:28;935.2;;;-0.5;88.8
69916;BME280;57203;42.672;23.334;2023-01-27T06:31:28;935.2;;;-0.6;88.5
69916;BME280;57203;42.672;23.334;2023-01-27T06:33:27;935.2;;;-0.7;88.5
69916;BME280;57203;42.672;23.334;2023-01-27T06:41:27;935.2;;;-0.6;88.4
69916;BME280;57203;42.672;23.334;2023-01-27T06:46:28;935.3;;;-0.7;87.9
69916;BME280;57203;42.672;23.334;2023-01-27T06:49:28;935.2;;;-0.6;87.9
69916;BME280;57203;42.672;23.334;2023-01-27T06:50:28;935.2;;;-0.4;88.0
69916;BME280;57203;42.672;23.334;2023-01-27T06:53:28;935.3;;;-0.3;87.5
69916;BME280;57203;42.672;23.334;2023-01-27T06:55:28;935.3;;;-0.4;87.2
69916;BME280;57203;42.672;23.334;2023-01-27T06:58:28;935.4;;;-0.3;87.1
69916;BME280;57203;42.672;23.334;2023-01-27T07:00:28;935.4;;;-0.2;86.9
69916;BME280;57203;42.672;23.334;2023-01-27T07:03:28;935.4;;;-0.1;86.4
69916;BME280;57203;42.672;23.334;2023-01-27T07:04:28;935.4;;;-0.2;86.4
69916;BME280;57203;42.672;23.334;2023-01-27T07:05:28;935.5;;;-0.3;86.1
69916;BME280;57203;42.672;23.334;2023-01-27T07:06:28;935.5;;;-0.2;86.3
69916;BME280;57203;42.672;23.334;2023-01-27T07:13:28;935.5;;;-0.1;85.9
69916;BME280;57203;42.672;23.334;2023-01-27T07:14:28;935.5;;;-0.0;86.0
69916;BME280;57203;42.672;23.334;2023-01-27T07:15:28;935.5;;;-0.1;85.9
69916;BME280;57203;42.672;23.334;2023-01-27T07:16:28;935.5;;;-0.0;85.7
69916;BME280;57203;42.672;23.334;2023-01-27T07:17:28;935.5;;;0.0;85.7
69916;BME280;57203;42.672;23.334;2023-01-27T07:18:28;935.5;;;-0.1;85.5
69916;BME280;57203;42.672;23.334;2023-01-27T07:19:28;935.4;;;-0.0;85.5
69916;BME280;57203;42.672;23.334;2023-01-27T07:20:28;935.4;;;0.0;85.8
69916;BME280;57203;42.672;23.334;2023-01-27T07:25:28;935.4;;;0.1;85.4
69916;BME280;57203;42.672;23.334;2023-01-27T07:26:28;935.4;;;0.2;85.4
69916;BME280;57203;42.672;23.334;2023-01-27T07:30:28;935.4;;;0.1;85.0
69916;BME280;57203;42.672;23.334;2023-01-27T07:31:28;935.3;;;0.2;84.9
69916;BME280;57203;42.672;23.334;2023-01-27T07:34:28;935.4;;;0.1;85.1
69916;BME280;57203;42.672;23.334;2023-01-27T07:36:28;935.4;;;0.0;85.1
69916;BME280;57203;42.672;23.334;2023-01-27T07:37:28;935.4;;;0.1;85.3
69916;BME280;57203;42.672;23.334;2023-01-27T07:38:28;935.4;;;-0.1;85.4
69916;BME280;57203;42.672;23.334;2023-01-27T07:39:28;935.5;;;-0.0;85.4
69916;BME280;57203;42.672;23.334;2023-01-27T07:41:28;935.5;;;0.0;85.8
69916;BME280;57203;42.672;23.334;2023-01-27T07:42:28;935.5;;;0.1;85.9
69916;BME280;57203;42.672;23.334;2023-01-27T07:43:28;935.5;;;0.0;85.8
69916;BME280;57203;42.672;23.334;2023-01-27T07:44:28;935.5;;;-0.1;85.6
69916;BME280;57203;42.672;23.334;2023-01-27T07:45:28;935.5;;;0.0;85.7
69916;BME280;57203;42.672;23.334;2023-01-27T07:46:28;935.5;;;0.1;85.7
69916;BME280;57203;42.672;23.334;2023-01-27T07:47:28;935.5;;;0.0;85.6
69916;BME280;57203;42.672;23.334;2023-01-27T07:49:28;935.5;;;-0.1;85.3
69916;BME280;57203;42.672;23.334;2023-01-27T07:51:28;935.5;;;0.0;85.8
69916;BME280;57203;42.672;23.334;2023-01-27T07:52:28;935.5;;;0.2;85.9
69916;BME280;57203;42.672;23.334;2023-01-27T07:55:28;935.5;;;0.1;85.1
69916;BME280;57203;42.672;23.334;2023-01-27T07:57:28;935.5;;;0.0;84.9
69916;BME280;57203;42.672;23.334;2023-01-27T07:58:28;935.5;;;0.1;84.9
69916;BME280;57203;42.672;23.334;2023-01-27T07:59:28;935.5;;;0.0;84.9
69916;BME280;57203;42.672;23.334;2023-01-27T08:00:28;935.6;;;-0.1;84.9
69916;BME280;57203;42.672;23.334;2023-01-27T08:03:28;935.6;;;-0.0;85.1
69916;BME280;57203;42.672;23.334;2023-01-27T08:04:28;935.5;;;0.1;85.0
69916;BME280;57203;42.672;23.334;2023-01-27T08:05:30;935.5;;;0.0;84.7
69916;BME280;57203;42.672;23.334;2023-01-27T08:06:28;935.5;;;0.1;84.5
69916;BME280;57203;42.672;23.334;2023-01-27T08:09:28;935.5;;;0.2;84.7
69916;BME280;57203;42.672;23.334;2023-01-27T08:10:28;935.5;;;0.1;84.4
69916;BME280;57203;42.672;23.334;2023-01-27T08:11:28;935.5;;;0.2;84.1
69916;BME280;57203;42.672;23.334;2023-01-27T08:12:28;935.5;;;0.3;84.2
69916;BME280;57203;42.672;23.334;2023-01-27T08:13:28;935.5;;;0.4;84.2
69916;BME280;57203;42.672;23.334;2023-01-27T08:14:28;935.5;;;0.3;84.1
69916;BME280;57203;42.672;23.334;2023-01-27T08:15:28;935.4;;;0.2;83.6
69916;BME280;57203;42.672;23.334;2023-01-27T08:16:28;935.4;;;0.3;83.7
69916;BME280;57203;42.672;23.334;2023-01-27T08:18:28;935.4;;;0.4;83.6
69916;BME280;57203;42.672;23.334;2023-01-27T08:20:28;935.4;;;0.5;83.3
69916;BME280;57203;42.672;23.334;2023-01-27T08:24:28;935.4;;;0.4;82.4
69916;BME280;57203;42.672;23.334;2023-01-27T08:26:28;935.4;;;0.2;82.5
69916;BME280;57203;42.672;23.334;2023-01-27T08:28:28;935.5;;;0.1;83.5
69916;BME280;57203;42.672;23.334;2023-01-27T08:30:28;935.5;;;0.2;83.5
69916;BME280;57203;42.672;23.334;2023-01-27T08:34:28;935.5;;;0.1;83.4
69916;BME280;57203;42.672;23.334;2023-01-27T08:36:28;935.5;;;0.0;83.6
69916;BME280;57203;42.672;23.334;2023-01-27T08:39:28;935.6;;;-0.0;83.9
69916;BME280;57203;42.672;23.334;2023-01-27T08:40:28;935.6;;;0.1;83.8
69916;BME280;57203;42.672;23.334;2023-01-27T08:45:28;935.6;;;0.2;83.6
69916;BME280;57203;42.672;23.334;2023-01-27T08:48:28;935.6;;;0.1;83.2
69916;BME280;57203;42.672;23.334;2023-01-27T08:51:28;935.6;;;-0.1;83.3
69916;BME280;57203;42.672;23.334;2023-01-27T08:52:28;935.6;;;-0.0;83.2
69916;BME280;57203;42.672;23.334;2023-01-27T08:53:28;935.6;;;0.1;83.6
69916;BME280;57203;42.672;23.334;2023-01-27T08:54:28;935.6;;;0.2;83.7
69916;BME280;57203;42.672;23.334;2023-01-27T08:59:28;935.6;;;0.1;82.7
69916;BME280;57203;42.672;23.334;2023-01-27T09:00:28;935.6;;;0.2;82.5
69916;BME280;57203;42.672;23.334;2023-01-27T09:01:28;935.6;;;0.0;82.8
69916;BME280;57203;42.672;23.334;2023-01-27T09:02:28;935.6;;;-0.0;83.0
69916;BME280;57203;42.672;23.334;2023-01-27T09:03:28;935.6;;;-0.1;83.4
69916;BME280;57203;42.672;23.334;2023-01-27T09:05:28;935.6;;;-0.2;83.6
69916;BME280;57203;42.672;23.334;2023-01-27T09:08:28;935.6;;;-0.1;83.7
69916;BME280;57203;42.672;23.334;2023-01-27T09:11:28;935.6;;;-0.2;83.3
69916;BME280;57203;42.672;23.334;2023-01-27T09:12:28;935.6;;;-0.1;83.4
69916;BME280;57203;42.672;23.334;2023-01-27T09:16:28;935.5;;;-0.0;83.9
69916;BME280;57203;42.672;23.334;2023-01-27T09:18:28;935.6;;;-0.1;84.0
69916;BME280;57203;42.672;23.334;2023-01-27T09:20:28;935.6;;;0.0;84.1
69916;BME280;57203;42.672;23.334;2023-01-27T09:21:28;935.6;;;-0.1;84.3
69916;BME280;57203;42.672;23.334;2023-01-27T09:22:28;935.6;;;-0.2;84.0
69916;BME280;57203;42.672;23.334;2023-01-27T09:23:28;935.6;;;-0.1;84.1
69916;BME280;57203;42.672;23.334;2023-01-27T09:26:28;935.5;;;0.1;84.2
69916;BME280;57203;42.672;23.334;2023-01-27T09:29:28;935.5;;;0.0;83.4
69916;BME280;57203;42.672;23.334;2023-01-27T09:31:28;935.5;;;-0.2;83.6
69916;BME280;57203;42.672;23.334;2023-01-27T09:33:28;935.5;;;-0.1;84.1
69916;BME280;57203;42.672;23.334;2023-01-27T09:35:29;935.4;;;-0.2;84.2
69916;BME280;57203;42.672;23.334;2023-01-27T09:37:28;935.4;;;-0.3;84.5
69916;BME280;57203;42.672;23.334;2023-01-27T09:44:29;935.3;;;-0.4;85.5
69916;BME280;57203;42.672;23.334;2023-01-27T09:47:32;935.3;;;-0.3;85.8
69916;BME280;57203;42.672;23.334;2023-01-27T09:50:32;935.2;;;-0.2;86.1
69916;BME280;57203;42.672;23.334;2023-01-27T09:53:29;935.2;;;-0.1;86.1
69916;BME280;57203;42.672;23.334;2023-01-27T09:56:31;935.1;;;-0.0;86.0
69916;BME280;57203;42.672;23.334;2023-01-27T09:57:31;935.1;;;0.1;86.0
69916;BME280;57203;42.672;23.334;2023-01-27T09:59:33;935.1;;;-0.1;85.7
69916;BME280;57203;42.672;23.334;2023-01-27T10:01:30;935.0;;;0.0;85.8
69916;BME280;57203;42.672;23.334;2023-01-27T10:04:33;935.0;;;0.1;85.8
69916;BME280;57203;42.672;23.334;2023-01-27T10:13:30;934.9;;;0.0;85.5
69916;BME280;57203;42.672;23.334;2023-01-27T10:14:30;934.9;;;0.1;85.4
69916;BME280;57203;42.672;23.334;2023-01-27T10:15:32;934.9;;;-0.0;85.4
69916;BME280;57203;42.672;23.334;2023-01-27T10:16:33;934.9;;;0.0;85.3
69916;BME280;57203;42.672;23.334;2023-01-27T10:19:32;935.0;;;-0.0;85.5
69916;BME280;57203;42.672;23.334;2023-01-27T10:20:29;935.0;;;-0.1;85.6
69916;BME280;57203;42.672;23.334;2023-01-27T10:21:30;935.0;;;-0.2;85.6
69916;BME280;57203;42.672;23.334;2023-01-27T10:22:30;935.0;;;-0.3;85.6
69916;BME280;57203;42.672;23.334;2023-01-27T10:24:31;935.0;;;-0.2;86.0
69916;BME280;57203;42.672;23.334;2023-01-27T10:26:29;935.0;;;-0.3;85.9
69916;BME280;57203;42.672;23.334;2023-01-27T10:28:28;935.0;;;-0.2;86.4
69916;BME280;57203;42.672;23.334;2023-01-27T10:32:29;935.0;;;-0.1;85.9
69916;BME280;57203;42.672;23.334;2023-01-27T10:35:30;934.9;;;-0.0;85.9
69916;BME280;57203;42.672;23.334;2023-01-27T10:36:28;934.9;;;0.0;85.7
69916;BME280;57203;42.672;23.334;2023-01-27T10:37:31;934.9;;;0.1;85.4
69916;BME280;57203;42.672;23.334;2023-01-27T10:38:31;934.9;;;-0.0;85.3
69916;BME280;57203;42.672;23.334;2023-01-27T10:40:30;934.9;;;-0.1;85.3
69916;BME280;57203;42.672;23.334;2023-01-27T10:43:29;934.9;;;-0.2;85.3
69916;BME280;57203;42.672;23.334;2023-01-27T10:44:33;934.9;;;-0.1;85.5
69916;BME280;57203;42.672;23.334;2023-01-27T10:48:32;934.9;;;-0.2;85.6
69916;BME280;57203;42.672;23.334;2023-01-27T10:50:29;934.9;;;-0.1;85.9
69916;BME280;57203;42.672;23.334;2023-01-27T10:53:30;934.8;;;-0.2;86.0
69916;BME280;57203;42.672;23.334;2023-01-27T10:54:29;934.8;;;-0.3;86.0
69916;BME280;57203;42.672;23.334;2023-01-27T10:57:29;934.8;;;-0.2;86.4
69916;BME280;57203;42.672;23.334;2023-01-27T11:00:29;934.9;;;-0.3;86.5
69916;BME280;57203;42.672;23.334;2023-01-27T11:01:29;934.9;;;-0.2;86.4
69916;BME280;57203;42.672;23.334;2023-01-27T11:03:30;934.9;;;-0.1;86.3
69916;BME280;57203;42.672;23.334;2023-01-27T11:04:30;934.9;;;0.0;86.1
69916;BME280;57203;42.672;23.334;2023-01-27T11:05:30;934.9;;;0.1;86.0
69916;BME280;57203;42.672;23.334;2023-01-27T11:06:28;934.9;;;0.0;85.8
69916;BME280;57203;42.672;23.334;2023-01-27T11:07:28;934.9;;;-0.1;85.5
69916;BME280;57203;42.672;23.334;2023-01-27T11:09:28;934.9;;;-0.2;85.7
69916;BME280;57203;42.672;23.334;2023-01-27T11:11:28;934.9;;;-0.3;85.8
69916;BME280;57203;42.672;23.334;2023-01-27T11:13:28;934.9;;;-0.2;86.0
69916;BME280;57203;42.672;23.334;2023-01-27T11:15:28;934.9;;;-0.3;85.9
69916;BME280;57203;42.672;23.334;2023-01-27T11:17:30;934.9;;;-0.2;85.8
69916;BME280;57203;42.672;23.334;2023-01-27T11:20:28;934.8;;;-0.1;85.5
69916;BME280;57203;42.672;23.334;2023-01-27T11:25:28;934.7;;;-0.2;85.2
69916;BME280;57203;42.672;23.334;2023-01-27T11:26:29;934.7;;;-0.3;85.0
69916;BME280;57203;42.672;23.334;2023-01-27T11:33:29;934.7;;;-0.2;86.6
69916;BME280;57203;42.672;23.334;2023-01-27T11:37:29;934.6;;;-0.1;85.3
69916;BME280;57203;42.672;23.334;2023-01-27T11:38:28;934.6;;;-0.2;85.2
69916;BME280;57203;42.672;23.334;2023-01-27T11:39:29;934.6;;;-0.1;85.1
69916;BME280;57203;42.672;23.334;2023-01-27T11:42:29;934.7;;;-0.2;85.0
69916;BME280;57203;42.672;23.334;2023-01-27T11:44:28;934.7;;;-0.3;85.0
69916;BME280;57203;42.672;23.334;2023-01-27T11:46:28;934.6;;;-0.2;85.2
69916;BME280;57203;42.672;23.334;2023-01-27T11:49:28;934.6;;;-0.1;85.1
69916;BME280;57203;42.672;23.334;2023-01-27T11:53:28;934.6;;;-0.2;84.7
69916;BME280;57203;42.672;23.334;2023-01-27T11:56:28;934.5;;;-0.3;84.9
69916;BME280;57203;42.672;23.334;2023-01-27T12:00:36;934.6;;;-0.2;85.2
69916;BME280;57203;42.672;23.334;2023-01-27T12:03:31;934.6;;;-0.1;84.9
69916;BME280;57203;42.672;23.334;2023-01-27T12:05:29;934.5;;;-0.2;84.7
69916;BME280;57203;42.672;23.334;2023-01-27T12:07:32;934.5;;;-0.3;84.7
69916;BME280;57203;42.672;23.334;2023-01-27T12:09:28;934.5;;;-0.1;84.6
69916;BME280;57203;42.672;23.334;2023-01-27T12:11:28;934.5;;;0.0;84.4
69916;BME280;57203;42.672;23.334;2023-01-27T12:12:28;934.5;;;0.1;84.4
69916;BME280;57203;42.672;23.334;2023-01-27T12:13:28;934.5;;;0.0;84.3
69916;BME280;57203;42.672;23.334;2023-01-27T12:14:28;934.6;;;-0.1;84.2
69916;BME280;57203;42.672;23.334;2023-01-27T12:16:33;934.5;;;-0.0;84.4
69916;BME280;57203;42.672;23.334;2023-01-27T12:22:29;934.6;;;0.1;84.2
69916;BME280;57203;42.672;23.334;2023-01-27T12:27:29;934.6;;;0.2;83.9
69916;BME280;57203;42.672;23.334;2023-01-27T12:28:28;934.6;;;0.1;83.8
69916;BME280;57203;42.672;23.334;2023-01-27T12:30:28;934.6;;;0.0;83.9
69916;BME280;57203;42.672;23.334;2023-01-27T12:31:29;934.6;;;-0.0;84.0
69916;BME280;57203;42.672;23.334;2023-01-27T12:32:32;934.7;;;0.0;84.1
69916;BME280;57203;42.672;23.334;2023-01-27T12:33:28;934.6;;;0.1;84.3
69916;BME280;57203;42.672;23.334;2023-01-27T12:34:29;934.6;;;0.0;84.2